Ely Airport Yelland Field
KELY : now visible

Airfield :











YOU CAN JOIN US ON...

 
LOGIN :

Register | Disclaimer

   EN    FR    IT 

 









Legend :    VFR   Marginal VFR   IFR   Intensive IFR   Very Intensive IFR
Visi :
Ceiling :
>= 8 km
>= 3000ft
5 to 8 km
1000 to 3000 ft
1500m to 5 km
500 to 1000 ft
800 to 1500m
200 to 500 ft
< 800m
< 200 ft
Symbols :   Thunderstorms  Fog  Heavy snow  Heavy precipitations  Wind > 20 kt






- Airport Elevation : 6259 ft


KELY - Ely Yelland Field

CURRENT METAR :
  • 080753Z AUTO 22009KT 10SM OVC039 04/01 A2997 RMK AO2 SLP118 T00440006 400780011

EXPIRED METARs :
  • 080653Z AUTO 21006KT 10SM OVC034 04/01 A2998 RMK AO2 SLP124 T00390011
  • 080553Z AUTO 19006KT 10SM BKN039 BKN047 OVC060 04/01 A2998 RMK AO2 SLP124 T00390011 10050 20033 56011

TAF KELY
Valid from the 08 at 06:00 until the 09 at 06:00 UTC


080532Z 0806/0906 21008KT P6SM SCT025 OVC040
FM080900 21008KT P6SM VCSH BKN025
FM081200 20006KT 4SM -SHSN BR SCT007 OVC015
FM082000 32006KT P6SM VCSH BKN025



MET'MAP, your aeronautical weather chart ! - Copyright ORBIFLY December 2007 - Disclaimer

ORBIFLY MET'MAP TEAM :

Programming & Development : Alexandra Zaïnal
Concept & original design : Baudouin d'Aumeries
Assistance for programming : Marc-Olivier Méhu
Technical & hardware support : Manuel Goepfert

Contact : metmap@orbifly.com




SOURCES & CREDITS :

   NOAA       Earth
Advisory